Impacts TAF Board
For situational awareness. Not to be used for flight planning purposes.
IDs:

KLGA - New York/La Guardia, NY, US

Issued at 0525 UTC 03 Aug 2021
Updated at 0719 UTC 03 Aug 2021
Potential Impact None Slight Moderate High
Time0651Z 03/08Z 03/09Z 03/10Z 03/11Z 03/12Z 03/13Z 03/14Z 03/15Z 03/16Z 03/17Z 03/18Z 03/19Z 03/20Z>>
Type OBS PRVL PRVL PRVL PRVL PRVL PRVL PRVL PRVL PRVL PRVL PRVL PRVL PRVL
VIS 10 >6 >6 >6 >6 >6 >6 >6 >6 >6 >6 >6 >6 >6
CIG -- -- -- -- -- -- -- -- -- -- -- -- -- --
Cover FEW SKC SKC SKC SKC SKC FEW FEW FEW FEW FEW FEW SCT SCT
FltCat VFR VFR VFR VFR VFR VFR VFR VFR VFR VFR VFR VFR VFR VFR
WX -- -- -- -- -- -- -- -- -- -- -- -- -- --
WDir 30 10 10 10 10 10 30 30 30 30 30 30 150 150
WSpd 3 4 4 4 4 4 6 6 6 6 6 6 6 6
WGst -- -- -- -- -- -- -- -- -- -- -- -- -- --
Raw TAF
KLGA 030525Z 0306/0412 01004KT P6SM SKC
  FM031300 03006KT P6SM FEW050
  FM031900 15006KT P6SM FEW050 SCT250
  FM032200 18007KT P6SM FEW050 BKN250
  FM040300 VRB04KT P6SM BKN050


Raw METAR
KLGA 030651Z 03003KT 10SM FEW070 22/11 A3009 RMK AO2 SLP188 T02170111
KLGA 030551Z 35004KT 10SM FEW070 22/10 A3008 RMK AO2 SLP187 T02220100 10261 20222 50009
KLGA 030451Z 32005KT 10SM SCT070 23/11 A3009 RMK AO2 SLP190 T02280106 402720178

METAR Board
Radar Display
Forecast Discussion
For situational awareness. Not to be used for flight planning purposes.